Time;durP1;ratioP1;P1;durP2;ratioP2;P2;SDS_P1;SDS_P2;PMS_P1;PMS_P2;Temp;Humidity;BMP_temperature;BMP_pressure;BME280_temperature;BME280_humidity;BME280_pressure;Samples;Min_cycle;Max_cycle;Signal;HPM_P1;HPM_P2
2022/09/09 00:01:43;;;;;;;6.88;2.17;;;;;;;;;;3366916;42;20572;-62
2022/09/09 00:04:12;;;;;;;5.78;2.40;;;;;;;;;;3368871;42;20103;-62
2022/09/09 00:07:20;;;;;;;6.45;2.40;;;;;;;;;;3361536;42;20162;-63
2022/09/09 00:10:13;;;;;;;6.28;2.13;;;;;;;;;;3358217;42;20282;-63
2022/09/09 00:12:57;;;;;;;6.40;1.87;;;;;;;;;;3365460;42;20095;-62
2022/09/09 00:15:38;;;;;;;5.47;1.85;;;;;;;;;;3367859;42;20099;-62
2022/09/09 00:18:36;;;;;;;5.43;1.92;;;;;;;;;;3365760;42;20099;-63
2022/09/09 00:21:07;;;;;;;5.20;1.90;;;;;;;;;;3360677;42;20298;-62
2022/09/09 00:23:39;;;;;;;4.97;1.85;;;;;;;;;;3366929;42;20088;-62
2022/09/09 00:26:09;;;;;;;5.47;2.00;;;;;;;;;;3366732;42;20550;-63
2022/09/09 00:28:52;;;;;;;6.45;2.25;;;;;;;;;;3365280;42;20094;-62
2022/09/09 00:31:26;;;;;;;6.05;2.38;;;;;;;;;;3365405;42;20542;-62
2022/09/09 00:33:53;;;;;;;5.78;2.15;;;;;;;;;;3365234;42;20094;-62
2022/09/09 00:36:21;;;;;;;6.53;2.30;;;;;;;;;;3366552;42;20118;-61
2022/09/09 00:38:49;;;;;;;7.37;2.20;;;;;;;;;;3365084;42;20088;-62
2022/09/09 00:41:58;;;;;;;5.43;1.85;;;;;;;;;;3365139;42;20102;-63
2022/09/09 00:44:34;;;;;;;6.57;2.25;;;;;;;;;;3366337;42;20640;-62
2022/09/09 00:47:12;;;;;;;6.38;2.10;;;;;;;;;;3366804;42;20083;-62
2022/09/09 00:49:56;;;;;;;5.82;1.90;;;;;;;;;;3368394;42;20088;-63
2022/09/09 00:53:18;;;;;;;6.60;2.00;;;;;;;;;;3367130;42;20616;-63
2022/09/09 00:56:13;;;;;;;6.25;1.98;;;;;;;;;;3337847;42;20104;-61
2022/09/09 00:58:43;;;;;;;6.82;2.58;;;;;;;;;;3364853;42;20088;-62
2022/09/09 01:01:11;;;;;;;5.63;2.10;;;;;;;;;;3365060;42;20135;-62
2022/09/09 01:03:54;;;;;;;7.10;2.40;;;;;;;;;;3364240;42;20084;-61
2022/09/09 01:06:31;;;;;;;6.10;2.00;;;;;;;;;;3365794;42;20573;-62
2022/09/09 01:09:19;;;;;;;5.93;2.30;;;;;;;;;;3365830;42;20095;-63
2022/09/09 01:12:06;;;;;;;6.97;2.30;;;;;;;;;;3363649;42;20084;-62
2022/09/09 01:14:39;;;;;;;6.78;2.30;;;;;;;;;;3366451;42;20187;-62
2022/09/09 01:17:34;;;;;;;7.07;2.70;;;;;;;;;;3364698;42;20105;-63
2022/09/09 01:20:17;;;;;;;5.87;2.00;;;;;;;;;;3359441;42;20094;-63
2022/09/09 01:23:15;;;;;;;5.25;1.90;;;;;;;;;;3361600;42;20084;-63
2022/09/09 01:25:44;;;;;;;6.30;2.20;;;;;;;;;;3353363;42;20143;-64
2022/09/09 01:28:13;;;;;;;6.88;2.22;;;;;;;;;;3359461;42;20310;-62
2022/09/09 01:30:39;;;;;;;7.32;2.50;;;;;;;;;;3361351;42;20084;-62
2022/09/09 01:33:05;;;;;;;5.20;2.10;;;;;;;;;;3362723;42;20694;-62
2022/09/09 01:35:57;;;;;;;5.60;2.22;;;;;;;;;;3348893;42;20104;-62
2022/09/09 01:38:23;;;;;;;5.95;2.20;;;;;;;;;;3349324;42;20131;-62
2022/09/09 01:40:51;;;;;;;5.40;1.90;;;;;;;;;;3355860;42;20118;-65
2022/09/09 01:43:21;;;;;;;5.90;2.20;;;;;;;;;;3362866;42;20087;-63
2022/09/09 01:45:48;;;;;;;5.50;2.00;;;;;;;;;;3348777;42;20099;-61
2022/09/09 01:48:14;;;;;;;5.57;2.28;;;;;;;;;;3358836;42;20107;-62
2022/09/09 01:50:40;;;;;;;6.38;2.40;;;;;;;;;;3364408;42;20091;-62
2022/09/09 01:53:06;;;;;;;6.07;2.40;;;;;;;;;;3359427;42;20617;-63
2022/09/09 01:55:40;;;;;;;7.57;2.53;;;;;;;;;;3359359;42;20088;-62
2022/09/09 01:58:17;;;;;;;7.88;2.60;;;;;;;;;;3351509;42;20088;-62
2022/09/09 02:01:10;;;;;;;5.88;2.40;;;;;;;;;;3357033;42;20084;-62
2022/09/09 02:03:36;;;;;;;5.72;2.10;;;;;;;;;;3365421;42;20088;-62
2022/09/09 02:06:10;;;;;;;5.82;2.30;;;;;;;;;;3367085;42;20183;-64
2022/09/09 02:08:48;;;;;;;7.47;2.57;;;;;;;;;;3362186;42;20099;-63
2022/09/09 02:11:19;;;;;;;6.30;2.40;;;;;;;;;;3349220;42;20091;-62
2022/09/09 02:13:51;;;;;;;7.38;2.58;;;;;;;;;;3356490;42;20135;-63
2022/09/09 02:16:54;;;;;;;8.25;2.30;;;;;;;;;;3354888;42;20259;-61
2022/09/09 02:19:27;;;;;;;10.05;2.78;;;;;;;;;;3329954;42;20159;-62
2022/09/09 02:21:55;;;;;;;5.97;2.30;;;;;;;;;;3354357;42;20095;-63
2022/09/09 02:24:21;;;;;;;6.63;2.38;;;;;;;;;;3365916;42;20551;-63
2022/09/09 02:26:49;;;;;;;8.02;2.67;;;;;;;;;;3364474;42;20092;-62
2022/09/09 02:29:18;;;;;;;5.78;2.25;;;;;;;;;;3364587;42;20182;-62
2022/09/09 02:31:44;;;;;;;6.53;2.67;;;;;;;;;;3364139;42;20100;-62
2022/09/09 02:34:10;;;;;;;9.93;2.70;;;;;;;;;;3363588;42;20482;-62
2022/09/09 02:36:36;;;;;;;6.68;2.35;;;;;;;;;;3363390;42;20107;-62
2022/09/09 02:39:02;;;;;;;7.80;2.30;;;;;;;;;;3366483;42;20123;-61
2022/09/09 02:41:33;;;;;;;7.65;2.40;;;;;;;;;;3369092;42;20548;-60
2022/09/09 02:43:59;;;;;;;6.78;2.30;;;;;;;;;;3369621;42;20084;-61
2022/09/09 02:46:47;;;;;;;6.57;2.20;;;;;;;;;;3369083;42;20088;-62
2022/09/09 02:49:25;;;;;;;6.18;2.03;;;;;;;;;;3369253;42;20087;-62
2022/09/09 02:52:00;;;;;;;7.22;2.40;;;;;;;;;;3367379;42;20116;-71
2022/09/09 02:54:33;;;;;;;7.03;2.25;;;;;;;;;;3366413;42;20092;-62
2022/09/09 02:57:02;;;;;;;6.50;2.50;;;;;;;;;;3365703;42;20091;-63
2022/09/09 02:59:29;;;;;;;6.43;2.60;;;;;;;;;;3367426;42;20147;-64
2022/09/09 03:01:55;;;;;;;7.53;2.50;;;;;;;;;;3364364;42;20156;-61
2022/09/09 03:04:21;;;;;;;8.55;2.50;;;;;;;;;;3364272;42;20084;-62
2022/09/09 03:06:47;;;;;;;7.18;2.75;;;;;;;;;;3367240;42;20103;-63
2022/09/09 03:09:12;;;;;;;9.27;2.53;;;;;;;;;;3367433;42;20084;-62
2022/09/09 03:11:38;;;;;;;7.35;2.13;;;;;;;;;;3367237;42;20083;-62
2022/09/09 03:14:05;;;;;;;6.72;2.58;;;;;;;;;;3365889;42;20114;-63
2022/09/09 03:16:32;;;;;;;6.50;2.53;;;;;;;;;;3367231;42;20123;-62
2022/09/09 03:18:58;;;;;;;6.00;2.45;;;;;;;;;;3366950;42;20088;-63
2022/09/09 03:21:24;;;;;;;7.10;2.47;;;;;;;;;;3366817;42;20183;-65
2022/09/09 03:23:50;;;;;;;5.95;2.55;;;;;;;;;;3366821;42;20548;-62
2022/09/09 03:26:16;;;;;;;7.03;2.63;;;;;;;;;;3367022;42;20162;-63
2022/09/09 03:28:44;;;;;;;8.10;2.65;;;;;;;;;;3364464;42;20103;-62
2022/09/09 03:31:10;;;;;;;6.40;2.63;;;;;;;;;;3358324;42;20531;-62
2022/09/09 03:33:37;;;;;;;7.03;2.80;;;;;;;;;;3363463;42;20459;-63
2022/09/09 03:36:03;;;;;;;8.60;3.08;;;;;;;;;;3364871;42;20099;-62
2022/09/09 03:38:29;;;;;;;9.20;2.97;;;;;;;;;;3360247;42;20135;-63
2022/09/09 03:40:57;;;;;;;9.43;3.25;;;;;;;;;;3362520;42;20151;-60
2022/09/09 03:43:23;;;;;;;6.93;2.97;;;;;;;;;;3360603;42;20277;-63
2022/09/09 03:45:49;;;;;;;7.13;2.80;;;;;;;;;;3360781;42;20561;-63
2022/09/09 03:48:16;;;;;;;7.07;2.40;;;;;;;;;;3366422;42;20708;-63
2022/09/09 03:50:49;;;;;;;7.18;2.80;;;;;;;;;;3364603;42;20558;-63
2022/09/09 03:53:16;;;;;;;7.07;2.92;;;;;;;;;;3364385;42;20245;-63
2022/09/09 03:55:49;;;;;;;7.73;2.60;;;;;;;;;;3364456;42;20111;-63
2022/09/09 03:58:18;;;;;;;10.10;2.75;;;;;;;;;;3366799;42;20096;-62
2022/09/09 04:00:54;;;;;;;8.13;3.38;;;;;;;;;;3365184;42;20151;-63
2022/09/09 04:03:20;;;;;;;7.28;2.95;;;;;;;;;;3365467;42;20175;-62
2022/09/09 04:05:48;;;;;;;9.80;3.70;;;;;;;;;;3366609;42;20185;-62
2022/09/09 04:08:14;;;;;;;10.13;3.50;;;;;;;;;;3350264;42;20095;-62
2022/09/09 04:10:41;;;;;;;11.95;3.72;;;;;;;;;;3366583;42;20143;-62
2022/09/09 04:13:07;;;;;;;9.55;3.67;;;;;;;;;;3366709;42;20559;-63
2022/09/09 04:15:34;;;;;;;9.75;3.50;;;;;;;;;;3366567;42;20103;-63
2022/09/09 04:18:00;;;;;;;9.67;3.93;;;;;;;;;;3366499;42;20794;-63
2022/09/09 04:20:26;;;;;;;10.20;4.20;;;;;;;;;;3366400;42;20099;-63
2022/09/09 04:22:52;;;;;;;10.73;4.18;;;;;;;;;;3366408;42;20513;-62
2022/09/09 04:25:18;;;;;;;16.40;4.73;;;;;;;;;;3367383;42;20087;-63
2022/09/09 04:27:44;;;;;;;14.82;4.28;;;;;;;;;;3364872;42;20577;-63
2022/09/09 04:30:10;;;;;;;9.82;3.60;;;;;;;;;;3366601;42;20593;-62
2022/09/09 04:32:36;;;;;;;9.48;3.92;;;;;;;;;;3366677;42;20166;-63
2022/09/09 04:35:03;;;;;;;9.07;3.63;;;;;;;;;;3366347;42;20155;-64
2022/09/09 04:37:29;;;;;;;9.88;3.85;;;;;;;;;;3365172;42;20083;-62
2022/09/09 04:39:55;;;;;;;11.82;4.38;;;;;;;;;;3366386;42;20090;-64
2022/09/09 04:42:22;;;;;;;8.52;3.40;;;;;;;;;;3366915;42;20667;-61
2022/09/09 04:44:47;;;;;;;9.40;3.72;;;;;;;;;;3366284;42;20084;-63
2022/09/09 04:47:14;;;;;;;8.77;4.00;;;;;;;;;;3366369;42;20178;-63
2022/09/09 04:49:40;;;;;;;9.63;3.72;;;;;;;;;;3365967;42;20123;-63
2022/09/09 04:52:06;;;;;;;9.27;4.03;;;;;;;;;;3366184;42;20095;-65
2022/09/09 04:54:32;;;;;;;14.10;4.60;;;;;;;;;;3363002;42;20079;-63
2022/09/09 04:56:58;;;;;;;24.90;4.87;;;;;;;;;;3365343;42;20115;-64
2022/09/09 04:59:24;;;;;;;11.10;3.30;;;;;;;;;;3366052;42;20087;-64
2022/09/09 05:01:50;;;;;;;7.47;3.00;;;;;;;;;;3365869;42;20114;-65
2022/09/09 05:04:16;;;;;;;7.80;3.40;;;;;;;;;;3365871;42;20126;-63
2022/09/09 05:06:42;;;;;;;7.80;3.17;;;;;;;;;;3366050;42;20092;-64
2022/09/09 05:09:08;;;;;;;10.40;3.60;;;;;;;;;;3364041;42;20103;-64
2022/09/09 05:11:38;;;;;;;11.05;3.10;;;;;;;;;;3365993;42;20542;-64
2022/09/09 05:14:04;;;;;;;6.88;2.70;;;;;;;;;;3366090;42;20083;-65
2022/09/09 05:16:30;;;;;;;6.97;2.53;;;;;;;;;;3355838;42;20104;-63
2022/09/09 05:18:56;;;;;;;7.15;2.80;;;;;;;;;;3360314;42;20100;-64
2022/09/09 05:21:22;;;;;;;8.75;2.90;;;;;;;;;;3360646;42;20096;-65
2022/09/09 05:23:49;;;;;;;7.75;2.63;;;;;;;;;;3358007;42;20136;-64
2022/09/09 05:26:16;;;;;;;9.38;2.78;;;;;;;;;;3361046;42;20581;-62
2022/09/09 05:28:42;;;;;;;7.20;2.63;;;;;;;;;;3361160;42;20180;-62
2022/09/09 05:31:09;;;;;;;8.48;2.70;;;;;;;;;;3361001;42;20709;-64
2022/09/09 05:44:09;;;;;;;7.93;2.20;;;;;;;;;;3054283;39;20369;-64
2022/09/09 05:46:35;;;;;;;7.88;2.55;;;;;;;;;;3388131;42;20093;-63
2022/09/09 05:49:01;;;;;;;5.88;2.10;;;;;;;;;;3399880;42;20417;-63
2022/09/09 05:51:29;;;;;;;5.33;2.30;;;;;;;;;;3399823;42;20090;-64
2022/09/09 05:53:58;;;;;;;6.15;1.70;;;;;;;;;;3399723;42;20105;-63
2022/09/09 05:56:26;;;;;;;6.35;2.47;;;;;;;;;;3399995;42;20166;-64
2022/09/09 05:58:53;;;;;;;5.97;1.80;;;;;;;;;;3391367;42;20123;-63
2022/09/09 06:01:20;;;;;;;5.30;1.85;;;;;;;;;;3391412;42;20097;-64
2022/09/09 06:03:47;;;;;;;5.20;1.90;;;;;;;;;;3399360;42;20165;-63
2022/09/09 06:06:17;;;;;;;6.38;2.10;;;;;;;;;;3390716;42;20137;-63
2022/09/09 06:08:44;;;;;;;9.93;3.35;;;;;;;;;;3390781;42;20094;-63
2022/09/09 06:11:11;;;;;;;4.95;1.70;;;;;;;;;;3389214;42;20094;-64
2022/09/09 06:13:38;;;;;;;5.50;1.88;;;;;;;;;;3390824;42;20093;-63
2022/09/09 06:16:07;;;;;;;7.73;2.03;;;;;;;;;;3399880;42;20086;-64
2022/09/09 06:18:32;;;;;;;6.18;1.80;;;;;;;;;;3391301;42;20094;-63
2022/09/09 06:21:00;;;;;;;5.07;1.50;;;;;;;;;;3390696;42;20082;-64
2022/09/09 06:23:27;;;;;;;5.88;1.52;;;;;;;;;;3399267;42;20090;-65
2022/09/09 06:26:05;;;;;;;5.07;1.73;;;;;;;;;;3396641;42;20507;-64
2022/09/09 06:28:32;;;;;;;4.70;1.57;;;;;;;;;;3401137;42;20105;-65
2022/09/09 06:31:09;;;;;;;6.68;1.75;;;;;;;;;;3387240;41;20094;-63
2022/09/09 06:33:40;;;;;;;5.40;1.40;;;;;;;;;;3402396;42;20187;-62
2022/09/09 06:36:17;;;;;;;5.38;1.58;;;;;;;;;;3401882;42;20086;-63
2022/09/09 06:38:44;;;;;;;5.78;1.40;;;;;;;;;;3394368;42;20095;-63
2022/09/09 06:41:10;;;;;;;4.20;1.30;;;;;;;;;;3403434;42;20551;-62
2022/09/09 06:43:37;;;;;;;4.80;1.40;;;;;;;;;;3400223;42;20217;-62
2022/09/09 06:46:07;;;;;;;6.40;1.60;;;;;;;;;;3396680;42;20149;-64
2022/09/09 06:48:33;;;;;;;5.45;1.42;;;;;;;;;;3388269;42;20104;-62
2022/09/09 06:51:13;;;;;;;5.50;1.67;;;;;;;;;;3396974;42;20565;-62
2022/09/09 06:53:41;;;;;;;6.20;1.50;;;;;;;;;;3395762;42;20523;-61
2022/09/09 06:56:10;;;;;;;5.65;1.45;;;;;;;;;;3393868;42;20631;-63
2022/09/09 06:58:37;;;;;;;5.18;1.60;;;;;;;;;;3394646;42;20090;-63
2022/09/09 07:01:04;;;;;;;4.90;1.67;;;;;;;;;;3393462;42;20091;-64
2022/09/09 07:03:30;;;;;;;5.05;1.40;;;;;;;;;;3393667;42;20220;-63
2022/09/09 07:05:56;;;;;;;4.63;1.50;;;;;;;;;;3393907;42;20092;-62
2022/09/09 07:08:24;;;;;;;4.28;1.30;;;;;;;;;;3385480;42;20090;-63
2022/09/09 07:10:53;;;;;;;4.30;1.40;;;;;;;;;;3382673;42;20099;-61
2022/09/09 07:13:26;;;;;;;4.18;1.20;;;;;;;;;;3392254;42;20691;-64
2022/09/09 07:15:52;;;;;;;4.57;1.42;;;;;;;;;;3383019;42;20189;-61
2022/09/09 07:18:19;;;;;;;4.70;1.30;;;;;;;;;;3391580;42;20079;-63
2022/09/09 07:20:54;;;;;;;4.68;1.40;;;;;;;;;;3383900;42;20115;-62
2022/09/09 07:23:20;;;;;;;4.22;1.20;;;;;;;;;;3395855;42;20146;-64
2022/09/09 07:25:47;;;;;;;4.35;1.17;;;;;;;;;;3397129;42;20086;-63
2022/09/09 07:28:13;;;;;;;3.72;1.10;;;;;;;;;;3397075;42;20131;-65
2022/09/09 07:30:40;;;;;;;4.13;1.20;;;;;;;;;;3386548;42;20120;-62
2022/09/09 07:33:07;;;;;;;4.20;1.17;;;;;;;;;;3398065;42;20090;-63
2022/09/09 07:35:33;;;;;;;4.68;1.48;;;;;;;;;;3394592;42;20101;-63
2022/09/09 07:38:00;;;;;;;5.47;1.60;;;;;;;;;;3396537;42;20152;-61
2022/09/09 07:40:26;;;;;;;4.60;1.60;;;;;;;;;;3396487;42;20112;-63
2022/09/09 07:42:53;;;;;;;6.95;1.73;;;;;;;;;;3396256;42;20562;-63
2022/09/09 07:45:19;;;;;;;5.00;1.60;;;;;;;;;;3396527;42;20568;-64
2022/09/09 07:47:45;;;;;;;6.72;1.80;;;;;;;;;;3380217;42;20106;-63
2022/09/09 07:50:11;;;;;;;5.43;1.67;;;;;;;;;;3395053;42;20112;-63
2022/09/09 07:52:37;;;;;;;6.22;1.67;;;;;;;;;;3389975;42;20090;-64
2022/09/09 07:55:04;;;;;;;5.22;1.75;;;;;;;;;;3392581;42;20097;-64
2022/09/09 07:57:30;;;;;;;5.63;1.50;;;;;;;;;;3392878;42;20086;-64
2022/09/09 07:59:56;;;;;;;5.38;1.63;;;;;;;;;;3392786;42;20133;-65
2022/09/09 08:02:27;;;;;;;4.50;1.43;;;;;;;;;;3382483;42;20094;-61
2022/09/09 08:04:53;;;;;;;4.68;1.70;;;;;;;;;;3395481;42;20159;-62
2022/09/09 08:07:21;;;;;;;4.93;1.60;;;;;;;;;;3395641;42;20091;-64
2022/09/09 08:09:47;;;;;;;5.63;1.73;;;;;;;;;;3395983;42;20093;-64
2022/09/09 08:12:13;;;;;;;4.80;1.50;;;;;;;;;;3392325;42;20090;-64
2022/09/09 08:14:39;;;;;;;4.53;1.45;;;;;;;;;;3392189;42;20092;-63
2022/09/09 08:17:05;;;;;;;5.05;1.58;;;;;;;;;;3381701;42;20465;-63
2022/09/09 08:19:35;;;;;;;4.20;1.30;;;;;;;;;;3388128;42;20575;-64
2022/09/09 08:22:02;;;;;;;4.70;1.60;;;;;;;;;;3383181;42;20158;-64
2022/09/09 08:24:28;;;;;;;5.68;1.90;;;;;;;;;;3392152;42;20103;-64
2022/09/09 08:26:55;;;;;;;3.88;1.30;;;;;;;;;;3376012;42;20136;-64
2022/09/09 08:29:21;;;;;;;3.95;1.20;;;;;;;;;;3392293;42;20107;-64
2022/09/09 08:31:54;;;;;;;4.33;1.30;;;;;;;;;;3392512;42;20168;-65
2022/09/09 08:34:20;;;;;;;3.60;1.00;;;;;;;;;;3392877;42;20152;-63
2022/09/09 08:36:47;;;;;;;3.63;0.90;;;;;;;;;;3376255;42;20090;-63
2022/09/09 08:39:14;;;;;;;3.80;0.90;;;;;;;;;;3381783;42;20082;-63
2022/09/09 08:42:06;;;;;;;3.40;1.00;;;;;;;;;;3372145;42;20094;-66
2022/09/09 08:45:09;;;;;;;3.83;1.20;;;;;;;;;;3375975;42;20134;-64
2022/09/09 08:47:47;;;;;;;3.85;1.20;;;;;;;;;;3382061;42;20174;-63
2022/09/09 08:50:27;;;;;;;3.83;1.17;;;;;;;;;;3392304;42;20149;-64
2022/09/09 08:53:00;;;;;;;4.25;1.27;;;;;;;;;;3375285;42;20516;-63
2022/09/09 08:55:35;;;;;;;6.40;1.40;;;;;;;;;;3393331;42;20557;-64
2022/09/09 08:58:14;;;;;;;4.83;1.43;;;;;;;;;;3393249;42;20173;-63
2022/09/09 09:00:43;;;;;;;3.95;1.30;;;;;;;;;;3382212;42;20091;-63
2022/09/09 09:03:26;;;;;;;4.63;1.50;;;;;;;;;;3383493;42;20782;-63
2022/09/09 09:06:05;;;;;;;4.55;1.30;;;;;;;;;;3391911;42;20082;-64
2022/09/09 09:08:44;;;;;;;3.70;1.10;;;;;;;;;;3383734;42;20602;-62
2022/09/09 09:11:10;;;;;;;3.43;1.10;;;;;;;;;;3374183;42;20833;-62
2022/09/09 09:13:47;;;;;;;4.00;1.17;;;;;;;;;;3383011;42;20106;-64
2022/09/09 09:16:34;;;;;;;3.83;1.10;;;;;;;;;;3378917;42;20617;-63
2022/09/09 09:19:00;;;;;;;4.00;1.20;;;;;;;;;;3379271;42;20132;-64
2022/09/09 09:21:49;;;;;;;3.90;1.17;;;;;;;;;;3387698;42;20094;-66
2022/09/09 09:24:35;;;;;;;3.00;0.90;;;;;;;;;;3387511;42;20146;-64
2022/09/09 09:27:04;;;;;;;3.10;0.95;;;;;;;;;;3388207;42;20624;-63
2022/09/09 09:29:30;;;;;;;3.40;1.00;;;;;;;;;;3377887;42;20103;-63
2022/09/09 09:31:57;;;;;;;2.67;0.80;;;;;;;;;;3388067;42;20109;-62
2022/09/09 09:34:24;;;;;;;3.30;0.90;;;;;;;;;;3387951;42;20113;-64
2022/09/09 09:37:02;;;;;;;3.08;0.90;;;;;;;;;;3385959;42;20149;-64
2022/09/09 09:39:38;;;;;;;5.72;1.00;;;;;;;;;;3389210;42;20568;-64
2022/09/09 09:42:14;;;;;;;3.10;0.80;;;;;;;;;;3381581;42;20903;-62
2022/09/09 09:44:40;;;;;;;3.70;1.00;;;;;;;;;;3384484;42;20108;-63
2022/09/09 09:47:07;;;;;;;3.07;0.80;;;;;;;;;;3393845;42;20085;-62
2022/09/09 09:49:33;;;;;;;2.83;0.80;;;;;;;;;;3395602;42;20082;-62
2022/09/09 09:52:03;;;;;;;3.83;0.90;;;;;;;;;;3387855;42;20200;-59
2022/09/09 09:54:39;;;;;;;5.55;0.82;;;;;;;;;;3387285;42;20094;-61
2022/09/09 09:57:12;;;;;;;3.15;0.90;;;;;;;;;;3386098;42;20094;-62
2022/09/09 09:59:40;;;;;;;2.13;0.70;;;;;;;;;;3397083;42;20507;-63
2022/09/09 10:02:25;;;;;;;5.43;0.80;;;;;;;;;;3387343;42;20104;-62
2022/09/09 10:05:02;;;;;;;3.40;0.90;;;;;;;;;;3396561;42;20205;-63
2022/09/09 10:07:28;;;;;;;3.58;0.90;;;;;;;;;;3394520;42;20216;-63
2022/09/09 10:09:57;;;;;;;3.75;1.00;;;;;;;;;;3397037;42;20193;-64
2022/09/09 10:12:46;;;;;;;2.57;0.70;;;;;;;;;;3394991;42;20234;-64
2022/09/09 10:15:21;;;;;;;2.95;0.82;;;;;;;;;;3386172;42;20078;-63
2022/09/09 10:18:30;;;;;;;3.60;1.00;;;;;;;;;;3394272;42;20172;-63
2022/09/09 10:21:15;;;;;;;3.50;1.00;;;;;;;;;;3389523;42;20212;-64
2022/09/09 10:23:53;;;;;;;3.78;1.13;;;;;;;;;;3394727;42;20151;-65
2022/09/09 10:26:39;;;;;;;3.30;1.00;;;;;;;;;;3398262;42;20113;-62
2022/09/09 10:29:11;;;;;;;3.33;0.93;;;;;;;;;;3384965;42;20136;-64
2022/09/09 10:31:56;;;;;;;3.35;0.90;;;;;;;;;;3393735;42;20092;-65
2022/09/09 10:34:35;;;;;;;4.80;1.20;;;;;;;;;;3388715;42;20121;-66
2022/09/09 10:37:01;;;;;;;5.03;1.00;;;;;;;;;;3385684;42;20079;-65
2022/09/09 10:39:40;;;;;;;4.30;1.10;;;;;;;;;;3376366;42;20098;-64
2022/09/09 10:42:07;;;;;;;4.32;1.10;;;;;;;;;;3380444;42;20153;-64
2022/09/09 10:45:11;;;;;;;4.60;1.30;;;;;;;;;;3394155;42;20749;-63
2022/09/09 10:47:38;;;;;;;3.55;1.10;;;;;;;;;;3398442;42;20125;-64
2022/09/09 10:50:11;;;;;;;3.35;0.90;;;;;;;;;;3393880;42;20090;-64
2022/09/09 10:52:58;;;;;;;4.67;1.10;;;;;;;;;;3397476;42;20093;-63
2022/09/09 10:55:28;;;;;;;4.13;1.02;;;;;;;;;;3387467;42;20100;-63
2022/09/09 10:57:54;;;;;;;5.03;1.10;;;;;;;;;;3387518;42;20112;-62
2022/09/09 11:00:21;;;;;;;4.10;1.20;;;;;;;;;;3385705;42;20568;-63
2022/09/09 11:03:04;;;;;;;4.53;1.20;;;;;;;;;;3393993;42;20176;-63
2022/09/09 11:05:41;;;;;;;6.67;1.30;;;;;;;;;;3372145;42;20102;-63
2022/09/09 11:08:11;;;;;;;4.97;1.10;;;;;;;;;;3380518;42;20181;-64
2022/09/09 11:10:43;;;;;;;4.97;1.10;;;;;;;;;;3392217;42;20090;-64
2022/09/09 11:13:17;;;;;;;4.47;1.13;;;;;;;;;;3392235;42;20095;-63
2022/09/09 11:15:51;;;;;;;6.28;1.10;;;;;;;;;;3379590;42;20621;-63
2022/09/09 11:18:20;;;;;;;5.30;1.27;;;;;;;;;;3381205;42;20089;-62
2022/09/09 11:20:47;;;;;;;4.00;1.20;;;;;;;;;;3389082;42;20149;-63
2022/09/09 11:23:39;;;;;;;5.25;1.10;;;;;;;;;;3387711;42;20723;-64
2022/09/09 11:26:05;;;;;;;3.90;1.10;;;;;;;;;;3392705;42;20101;-64
2022/09/09 11:28:58;;;;;;;4.43;1.10;;;;;;;;;;3386754;42;20228;-62
2022/09/09 11:31:38;;;;;;;6.47;1.20;;;;;;;;;;3382602;42;20137;-63
2022/09/09 11:34:09;;;;;;;5.18;1.10;;;;;;;;;;3382407;42;20082;-63
2022/09/09 11:37:13;;;;;;;5.68;0.90;;;;;;;;;;3392638;42;20090;-65
2022/09/09 11:39:46;;;;;;;5.90;0.95;;;;;;;;;;3391730;42;20087;-62
2022/09/09 11:42:12;;;;;;;4.00;1.00;;;;;;;;;;3382640;42;20237;-63
2022/09/09 11:44:38;;;;;;;3.60;1.00;;;;;;;;;;3382418;42;20094;-65
2022/09/09 11:47:05;;;;;;;3.95;1.00;;;;;;;;;;3391490;42;20184;-64
2022/09/09 11:49:37;;;;;;;4.38;1.00;;;;;;;;;;3375046;42;20137;-63
2022/09/09 11:52:25;;;;;;;4.18;0.90;;;;;;;;;;3392103;42;20193;-66
2022/09/09 11:54:51;;;;;;;4.07;1.00;;;;;;;;;;3391358;42;20098;-61
2022/09/09 11:57:33;;;;;;;3.42;1.00;;;;;;;;;;3391212;42;20095;-62
2022/09/09 11:59:59;;;;;;;4.30;0.90;;;;;;;;;;3373609;42;20082;-62
2022/09/09 12:02:32;;;;;;;3.47;0.80;;;;;;;;;;3383974;42;20128;-63
2022/09/09 12:05:02;;;;;;;3.50;1.10;;;;;;;;;;3387109;42;20128;-63
2022/09/09 12:07:42;;;;;;;10.80;4.73;;;;;;;;;;3397101;42;20096;-62
2022/09/09 12:10:08;;;;;;;4.95;1.65;;;;;;;;;;3387093;42;20082;-62
2022/09/09 12:12:36;;;;;;;4.95;1.75;;;;;;;;;;3395446;42;20165;-63
2022/09/09 12:15:17;;;;;;;5.03;1.95;;;;;;;;;;3387508;42;20159;-63
2022/09/09 12:17:50;;;;;;;3.70;1.10;;;;;;;;;;3386604;42;20082;-62
2022/09/09 12:20:21;;;;;;;4.33;1.27;;;;;;;;;;3380290;42;20109;-63
2022/09/09 12:22:53;;;;;;;4.88;1.20;;;;;;;;;;3394465;42;20545;-63
2022/09/09 12:25:28;;;;;;;4.32;1.38;;;;;;;;;;3396040;42;20090;-63
2022/09/09 12:28:27;;;;;;;3.95;1.13;;;;;;;;;;3395677;42;20140;-62
2022/09/09 12:31:10;;;;;;;3.80;1.13;;;;;;;;;;3387520;42;20556;-63
2022/09/09 12:33:43;;;;;;;4.43;1.20;;;;;;;;;;3385054;42;20560;-64
2022/09/09 12:36:14;;;;;;;3.47;0.90;;;;;;;;;;3396866;42;20109;-63
2022/09/09 12:38:41;;;;;;;5.38;1.05;;;;;;;;;;3395530;42;20805;-62
2022/09/09 12:41:22;;;;;;;5.03;1.00;;;;;;;;;;3394874;42;20547;-64
2022/09/09 12:43:50;;;;;;;4.05;1.30;;;;;;;;;;3387844;42;20111;-63
2022/09/09 12:46:42;;;;;;;4.10;1.20;;;;;;;;;;3397001;42;20167;-63
2022/09/09 12:49:33;;;;;;;3.17;1.00;;;;;;;;;;3380059;42;20465;-66
2022/09/09 12:52:14;;;;;;;3.50;1.02;;;;;;;;;;3392397;42;20147;-64
2022/09/09 12:54:44;;;;;;;3.90;1.00;;;;;;;;;;3386862;42;20157;-66
2022/09/09 12:57:14;;;;;;;3.35;1.02;;;;;;;;;;3387738;42;20157;-62
2022/09/09 12:59:41;;;;;;;3.57;0.90;;;;;;;;;;3388121;42;20098;-64
2022/09/09 13:02:26;;;;;;;4.03;1.00;;;;;;;;;;3385366;42;20134;-62
2022/09/09 13:04:52;;;;;;;3.95;1.00;;;;;;;;;;3385600;42;20138;-64
2022/09/09 13:07:19;;;;;;;3.85;1.08;;;;;;;;;;3375702;42;20091;-63
2022/09/09 13:09:45;;;;;;;4.25;1.20;;;;;;;;;;3388403;42;20160;-65
2022/09/09 13:12:22;;;;;;;4.10;1.23;;;;;;;;;;3388773;42;20153;-65
2022/09/09 13:14:50;;;;;;;4.15;1.20;;;;;;;;;;3392353;42;20086;-63
2022/09/09 13:17:21;;;;;;;5.45;1.90;;;;;;;;;;3375936;42;20103;-62
2022/09/09 13:19:47;;;;;;;4.88;1.25;;;;;;;;;;3377170;42;20213;-64
2022/09/09 13:22:28;;;;;;;6.60;1.40;;;;;;;;;;3381716;42;20692;-64
2022/09/09 13:25:11;;;;;;;4.50;1.30;;;;;;;;;;3392541;42;20276;-65
2022/09/09 13:27:39;;;;;;;6.13;1.50;;;;;;;;;;3392368;42;20594;-64
2022/09/09 13:30:40;;;;;;;5.20;1.48;;;;;;;;;;3392095;42;20086;-62
2022/09/09 13:33:12;;;;;;;4.47;1.25;;;;;;;;;;3375518;42;20560;-63
2022/09/09 13:36:07;;;;;;;4.30;1.42;;;;;;;;;;3386808;42;20217;-65
2022/09/09 13:38:37;;;;;;;4.50;1.20;;;;;;;;;;3375775;42;20559;-65
2022/09/09 13:41:07;;;;;;;5.00;1.40;;;;;;;;;;3383288;42;20584;-63
2022/09/09 13:43:38;;;;;;;5.78;1.38;;;;;;;;;;3375279;42;20470;-64
2022/09/09 13:46:21;;;;;;;5.55;1.63;;;;;;;;;;3374200;42;20095;-64
2022/09/09 13:49:08;;;;;;;4.60;1.50;;;;;;;;;;3381459;42;20109;-64
2022/09/09 13:51:44;;;;;;;6.10;1.70;;;;;;;;;;3382063;42;20577;-62
2022/09/09 13:54:10;;;;;;;4.60;1.20;;;;;;;;;;3384017;42;20142;-64
2022/09/09 13:56:37;;;;;;;4.97;1.48;;;;;;;;;;3384065;42;20541;-62
2022/09/09 13:59:04;;;;;;;5.38;1.20;;;;;;;;;;3391756;42;20097;-64
2022/09/09 14:01:30;;;;;;;6.55;1.50;;;;;;;;;;3376607;42;20083;-63
2022/09/09 14:03:56;;;;;;;4.87;1.50;;;;;;;;;;3393641;42;20541;-63
2022/09/09 14:06:22;;;;;;;5.82;1.65;;;;;;;;;;3385128;42;20090;-64
2022/09/09 14:08:51;;;;;;;4.60;1.30;;;;;;;;;;3385065;42;20090;-63
2022/09/09 14:11:18;;;;;;;4.65;1.60;;;;;;;;;;3384754;42;20110;-65
2022/09/09 14:13:44;;;;;;;5.80;1.60;;;;;;;;;;3384544;42;20106;-62
2022/09/09 14:16:10;;;;;;;6.77;1.77;;;;;;;;;;3393782;42;20172;-63
2022/09/09 14:18:37;;;;;;;4.43;1.55;;;;;;;;;;3382846;42;20087;-63
2022/09/09 14:21:03;;;;;;;5.07;1.40;;;;;;;;;;3392233;42;20086;-65
2022/09/09 14:23:29;;;;;;;6.10;1.40;;;;;;;;;;3384701;42;20150;-65
2022/09/09 14:25:56;;;;;;;5.80;1.20;;;;;;;;;;3393498;42;20078;-65
2022/09/09 14:28:22;;;;;;;7.38;1.40;;;;;;;;;;3384662;42;20109;-65
2022/09/09 14:30:48;;;;;;;4.78;1.30;;;;;;;;;;3384789;42;20098;-63
2022/09/09 14:33:15;;;;;;;7.03;1.63;;;;;;;;;;3393733;42;20162;-62
2022/09/09 14:35:42;;;;;;;4.67;1.30;;;;;;;;;;3375883;42;20639;-64
2022/09/09 14:38:08;;;;;;;5.38;1.38;;;;;;;;;;3393706;42;20229;-64
2022/09/09 14:40:35;;;;;;;5.47;1.38;;;;;;;;;;3396878;42;20516;-66
2022/09/09 14:43:01;;;;;;;6.32;1.30;;;;;;;;;;3396253;42;20113;-63
2022/09/09 14:45:28;;;;;;;4.05;1.38;;;;;;;;;;3387790;42;20180;-60
2022/09/09 14:47:54;;;;;;;4.47;1.30;;;;;;;;;;3390016;42;20579;-64
2022/09/09 14:50:20;;;;;;;4.43;1.27;;;;;;;;;;3395632;42;20587;-63
2022/09/09 14:52:46;;;;;;;4.72;1.42;;;;;;;;;;3389283;42;20113;-62
2022/09/09 14:55:16;;;;;;;6.60;1.27;;;;;;;;;;3389521;42;20178;-62
2022/09/09 14:57:43;;;;;;;4.72;1.30;;;;;;;;;;3395861;42;20101;-63
2022/09/09 15:00:11;;;;;;;5.07;1.30;;;;;;;;;;3395417;42;20160;-58
2022/09/09 15:02:38;;;;;;;5.60;1.30;;;;;;;;;;3396617;42;20152;-61
2022/09/09 15:05:04;;;;;;;5.72;1.42;;;;;;;;;;3389316;42;20162;-61
2022/09/09 15:07:31;;;;;;;5.95;1.60;;;;;;;;;;3397134;42;20130;-61
2022/09/09 15:09:57;;;;;;;5.28;1.63;;;;;;;;;;3397589;42;20092;-63
2022/09/09 15:12:24;;;;;;;4.50;1.30;;;;;;;;;;3397080;42;20101;-61
2022/09/09 15:14:50;;;;;;;5.88;1.40;;;;;;;;;;3398017;42;20173;-62
2022/09/09 15:17:20;;;;;;;6.32;1.55;;;;;;;;;;3380795;42;20098;-62
2022/09/09 15:19:46;;;;;;;7.03;1.55;;;;;;;;;;3383908;42;20113;-62
2022/09/09 15:22:13;;;;;;;11.15;1.83;;;;;;;;;;3395043;42;20606;-61